sensor_id;sensor_type;location;lat;lon;timestamp;P1;durP1;ratioP1;P2;durP2;ratioP2
32292;SDS011;43233;48.608;8.838;2023-02-14T00:01:29;35.57;;;17.97;;
32292;SDS011;43233;48.608;8.838;2023-02-14T00:03:55;24.43;;;15.83;;
32292;SDS011;43233;48.608;8.838;2023-02-14T00:06:24;31.13;;;20.00;;
32292;SDS011;43233;48.608;8.838;2023-02-14T00:08:50;95.33;;;17.47;;
32292;SDS011;43233;48.608;8.838;2023-02-14T00:11:18;170.23;;;19.10;;
32292;SDS011;43233;48.608;8.838;2023-02-14T00:13:44;26.73;;;15.27;;
32292;SDS011;43233;48.608;8.838;2023-02-14T00:16:28;28.80;;;16.23;;
32292;SDS011;43233;48.608;8.838;2023-02-14T00:18:54;27.40;;;14.93;;
32292;SDS011;43233;48.608;8.838;2023-02-14T00:21:32;29.60;;;14.47;;
32292;SDS011;43233;48.608;8.838;2023-02-14T00:24:04;204.50;;;18.30;;
32292;SDS011;43233;48.608;8.838;2023-02-14T00:26:31;21.50;;;14.03;;
32292;SDS011;43233;48.608;8.838;2023-02-14T00:28:57;37.13;;;13.53;;
32292;SDS011;43233;48.608;8.838;2023-02-14T00:31:23;112.07;;;20.30;;
32292;SDS011;43233;48.608;8.838;2023-02-14T00:33:49;26.90;;;15.53;;
32292;SDS011;43233;48.608;8.838;2023-02-14T00:36:14;52.80;;;13.70;;
32292;SDS011;43233;48.608;8.838;2023-02-14T00:38:42;28.47;;;15.80;;
32292;SDS011;43233;48.608;8.838;2023-02-14T00:41:07;23.27;;;14.53;;
32292;SDS011;43233;48.608;8.838;2023-02-14T00:43:33;23.30;;;13.17;;
32292;SDS011;43233;48.608;8.838;2023-02-14T00:45:59;34.53;;;13.63;;
32292;SDS011;43233;48.608;8.838;2023-02-14T00:48:24;39.73;;;14.50;;
32292;SDS011;43233;48.608;8.838;2023-02-14T00:50:50;28.47;;;15.17;;
32292;SDS011;43233;48.608;8.838;2023-02-14T00:53:16;22.67;;;14.60;;
32292;SDS011;43233;48.608;8.838;2023-02-14T00:55:43;92.00;;;16.83;;
32292;SDS011;43233;48.608;8.838;2023-02-14T00:58:10;22.87;;;14.80;;
32292;SDS011;43233;48.608;8.838;2023-02-14T01:00:35;41.80;;;14.90;;
32292;SDS011;43233;48.608;8.838;2023-02-14T01:03:01;21.23;;;14.63;;
32292;SDS011;43233;48.608;8.838;2023-02-14T01:05:27;23.77;;;14.37;;
32292;SDS011;43233;48.608;8.838;2023-02-14T01:07:52;23.57;;;14.60;;
32292;SDS011;43233;48.608;8.838;2023-02-14T01:10:18;31.63;;;16.00;;
32292;SDS011;43233;48.608;8.838;2023-02-14T01:12:43;25.77;;;14.90;;
32292;SDS011;43233;48.608;8.838;2023-02-14T01:15:09;22.70;;;14.10;;
32292;SDS011;43233;48.608;8.838;2023-02-14T01:17:35;26.90;;;14.53;;
32292;SDS011;43233;48.608;8.838;2023-02-14T01:20:00;19.87;;;14.00;;
32292;SDS011;43233;48.608;8.838;2023-02-14T01:22:26;23.90;;;13.97;;
32292;SDS011;43233;48.608;8.838;2023-02-14T01:24:51;32.00;;;18.33;;
32292;SDS011;43233;48.608;8.838;2023-02-14T01:27:17;22.87;;;15.13;;
32292;SDS011;43233;48.608;8.838;2023-02-14T01:29:43;23.47;;;13.93;;
32292;SDS011;43233;48.608;8.838;2023-02-14T01:32:08;20.90;;;14.23;;
32292;SDS011;43233;48.608;8.838;2023-02-14T01:34:34;43.70;;;18.50;;
32292;SDS011;43233;48.608;8.838;2023-02-14T01:37:00;34.80;;;15.80;;
32292;SDS011;43233;48.608;8.838;2023-02-14T01:39:25;19.53;;;14.13;;
32292;SDS011;43233;48.608;8.838;2023-02-14T01:41:51;20.57;;;13.33;;
32292;SDS011;43233;48.608;8.838;2023-02-14T01:46:57;38.13;;;13.80;;
32292;SDS011;43233;48.608;8.838;2023-02-14T01:49:27;16.10;;;11.97;;
32292;SDS011;43233;48.608;8.838;2023-02-14T01:52:05;17.70;;;13.30;;
32292;SDS011;43233;48.608;8.838;2023-02-14T01:54:37;36.77;;;14.77;;
32292;SDS011;43233;48.608;8.838;2023-02-14T01:57:08;57.97;;;15.20;;
32292;SDS011;43233;48.608;8.838;2023-02-14T01:59:39;21.97;;;12.40;;
32292;SDS011;43233;48.608;8.838;2023-02-14T02:02:09;21.40;;;14.30;;
32292;SDS011;43233;48.608;8.838;2023-02-14T02:04:40;27.23;;;14.20;;
32292;SDS011;43233;48.608;8.838;2023-02-14T02:07:09;17.97;;;13.17;;
32292;SDS011;43233;48.608;8.838;2023-02-14T02:09:49;17.77;;;12.60;;
32292;SDS011;43233;48.608;8.838;2023-02-14T02:12:18;16.60;;;12.90;;
32292;SDS011;43233;48.608;8.838;2023-02-14T02:14:44;23.67;;;14.57;;
32292;SDS011;43233;48.608;8.838;2023-02-14T02:44:31;37.63;;;18.33;;
32292;SDS011;43233;48.608;8.838;2023-02-14T02:47:06;25.13;;;15.77;;
32292;SDS011;43233;48.608;8.838;2023-02-14T02:58:16;30.27;;;18.17;;
32292;SDS011;43233;48.608;8.838;2023-02-14T03:00:44;38.73;;;19.20;;
32292;SDS011;43233;48.608;8.838;2023-02-14T03:03:12;32.13;;;18.87;;
32292;SDS011;43233;48.608;8.838;2023-02-14T03:05:57;53.23;;;19.87;;
32292;SDS011;43233;48.608;8.838;2023-02-14T03:08:24;42.40;;;20.00;;
32292;SDS011;43233;48.608;8.838;2023-02-14T03:10:50;51.00;;;20.60;;
32292;SDS011;43233;48.608;8.838;2023-02-14T03:18:38;37.60;;;19.30;;
32292;SDS011;43233;48.608;8.838;2023-02-14T03:29:11;30.60;;;17.13;;
32292;SDS011;43233;48.608;8.838;2023-02-14T03:37:14;34.03;;;19.70;;
32292;SDS011;43233;48.608;8.838;2023-02-14T03:39:55;32.53;;;18.40;;
32292;SDS011;43233;48.608;8.838;2023-02-14T03:42:36;43.00;;;22.03;;
32292;SDS011;43233;48.608;8.838;2023-02-14T03:45:08;37.37;;;20.80;;
32292;SDS011;43233;48.608;8.838;2023-02-14T03:47:37;49.67;;;23.03;;
32292;SDS011;43233;48.608;8.838;2023-02-14T03:50:08;69.03;;;26.23;;
32292;SDS011;43233;48.608;8.838;2023-02-14T03:52:38;48.07;;;22.50;;
32292;SDS011;43233;48.608;8.838;2023-02-14T03:55:05;46.97;;;22.80;;
32292;SDS011;43233;48.608;8.838;2023-02-14T03:57:37;39.83;;;20.07;;
32292;SDS011;43233;48.608;8.838;2023-02-14T04:00:12;29.73;;;18.77;;
32292;SDS011;43233;48.608;8.838;2023-02-14T04:02:40;34.73;;;18.20;;
32292;SDS011;43233;48.608;8.838;2023-02-14T04:05:20;28.30;;;16.87;;
32292;SDS011;43233;48.608;8.838;2023-02-14T04:07:53;30.63;;;15.97;;
32292;SDS011;43233;48.608;8.838;2023-02-14T04:10:20;26.97;;;15.20;;
32292;SDS011;43233;48.608;8.838;2023-02-14T04:12:47;25.17;;;14.30;;
32292;SDS011;43233;48.608;8.838;2023-02-14T04:15:13;34.40;;;15.73;;
32292;SDS011;43233;48.608;8.838;2023-02-14T04:17:40;26.40;;;15.37;;
32292;SDS011;43233;48.608;8.838;2023-02-14T04:20:25;34.70;;;17.33;;
32292;SDS011;43233;48.608;8.838;2023-02-14T04:22:51;31.83;;;19.10;;
32292;SDS011;43233;48.608;8.838;2023-02-14T04:25:17;30.43;;;17.40;;
32292;SDS011;43233;48.608;8.838;2023-02-14T04:27:44;31.73;;;16.93;;
32292;SDS011;43233;48.608;8.838;2023-02-14T04:30:10;28.37;;;17.20;;
32292;SDS011;43233;48.608;8.838;2023-02-14T04:32:36;34.60;;;18.13;;
32292;SDS011;43233;48.608;8.838;2023-02-14T04:35:03;32.00;;;17.10;;
32292;SDS011;43233;48.608;8.838;2023-02-14T04:37:29;45.83;;;15.77;;
32292;SDS011;43233;48.608;8.838;2023-02-14T04:39:54;28.43;;;15.37;;
32292;SDS011;43233;48.608;8.838;2023-02-14T04:42:20;27.80;;;16.90;;
32292;SDS011;43233;48.608;8.838;2023-02-14T04:44:46;25.23;;;14.83;;
32292;SDS011;43233;48.608;8.838;2023-02-14T04:47:11;30.40;;;16.97;;
32292;SDS011;43233;48.608;8.838;2023-02-14T04:49:37;27.87;;;16.90;;
32292;SDS011;43233;48.608;8.838;2023-02-14T04:52:03;28.17;;;16.70;;
32292;SDS011;43233;48.608;8.838;2023-02-14T04:54:29;20.07;;;13.53;;
32292;SDS011;43233;48.608;8.838;2023-02-14T04:56:55;25.40;;;17.20;;
32292;SDS011;43233;48.608;8.838;2023-02-14T04:59:21;35.40;;;19.30;;
32292;SDS011;43233;48.608;8.838;2023-02-14T05:01:47;29.83;;;15.80;;
32292;SDS011;43233;48.608;8.838;2023-02-14T05:04:12;22.27;;;15.20;;
32292;SDS011;43233;48.608;8.838;2023-02-14T05:06:38;26.00;;;15.70;;
32292;SDS011;43233;48.608;8.838;2023-02-14T05:09:04;20.80;;;14.60;;
32292;SDS011;43233;48.608;8.838;2023-02-14T05:11:30;24.20;;;15.40;;
32292;SDS011;43233;48.608;8.838;2023-02-14T05:13:56;25.03;;;15.20;;
32292;SDS011;43233;48.608;8.838;2023-02-14T05:16:21;23.70;;;14.90;;
32292;SDS011;43233;48.608;8.838;2023-02-14T05:18:48;21.47;;;14.90;;
32292;SDS011;43233;48.608;8.838;2023-02-14T05:21:13;25.67;;;14.93;;
32292;SDS011;43233;48.608;8.838;2023-02-14T05:23:39;23.20;;;13.37;;
32292;SDS011;43233;48.608;8.838;2023-02-14T05:26:05;30.00;;;17.07;;
32292;SDS011;43233;48.608;8.838;2023-02-14T05:28:31;35.53;;;19.20;;
32292;SDS011;43233;48.608;8.838;2023-02-14T05:30:56;33.50;;;19.00;;
32292;SDS011;43233;48.608;8.838;2023-02-14T05:33:23;35.97;;;19.50;;
32292;SDS011;43233;48.608;8.838;2023-02-14T05:35:49;37.03;;;19.37;;
32292;SDS011;43233;48.608;8.838;2023-02-14T05:38:15;28.10;;;17.20;;
32292;SDS011;43233;48.608;8.838;2023-02-14T05:40:41;33.40;;;19.37;;
32292;SDS011;43233;48.608;8.838;2023-02-14T05:43:07;32.87;;;17.57;;
32292;SDS011;43233;48.608;8.838;2023-02-14T05:45:33;31.20;;;16.60;;
32292;SDS011;43233;48.608;8.838;2023-02-14T05:47:59;33.50;;;17.70;;
32292;SDS011;43233;48.608;8.838;2023-02-14T05:50:25;29.10;;;15.87;;
32292;SDS011;43233;48.608;8.838;2023-02-14T05:52:50;26.50;;;14.83;;
32292;SDS011;43233;48.608;8.838;2023-02-14T05:55:16;25.93;;;14.93;;
32292;SDS011;43233;48.608;8.838;2023-02-14T05:57:41;29.30;;;15.33;;
32292;SDS011;43233;48.608;8.838;2023-02-14T06:00:07;32.47;;;17.70;;
32292;SDS011;43233;48.608;8.838;2023-02-14T06:02:34;40.37;;;18.00;;
32292;SDS011;43233;48.608;8.838;2023-02-14T06:04:59;35.97;;;18.20;;
32292;SDS011;43233;48.608;8.838;2023-02-14T06:07:25;26.50;;;16.67;;
32292;SDS011;43233;48.608;8.838;2023-02-14T06:09:51;33.20;;;18.67;;
32292;SDS011;43233;48.608;8.838;2023-02-14T06:12:16;36.47;;;19.60;;
32292;SDS011;43233;48.608;8.838;2023-02-14T06:14:42;44.37;;;18.97;;
32292;SDS011;43233;48.608;8.838;2023-02-14T06:17:09;48.80;;;20.67;;
32292;SDS011;43233;48.608;8.838;2023-02-14T06:19:35;34.50;;;18.37;;
32292;SDS011;43233;48.608;8.838;2023-02-14T06:22:00;32.60;;;18.07;;
32292;SDS011;43233;48.608;8.838;2023-02-14T06:24:26;28.37;;;16.67;;
32292;SDS011;43233;48.608;8.838;2023-02-14T06:26:52;34.97;;;19.30;;
32292;SDS011;43233;48.608;8.838;2023-02-14T06:29:17;31.47;;;18.00;;
32292;SDS011;43233;48.608;8.838;2023-02-14T06:31:43;36.53;;;18.43;;
32292;SDS011;43233;48.608;8.838;2023-02-14T06:34:09;44.13;;;19.83;;
32292;SDS011;43233;48.608;8.838;2023-02-14T06:36:35;34.43;;;19.93;;
32292;SDS011;43233;48.608;8.838;2023-02-14T06:39:01;30.40;;;18.17;;
32292;SDS011;43233;48.608;8.838;2023-02-14T06:41:26;41.13;;;21.40;;
32292;SDS011;43233;48.608;8.838;2023-02-14T06:43:52;44.83;;;24.33;;
32292;SDS011;43233;48.608;8.838;2023-02-14T06:46:18;40.37;;;21.53;;
32292;SDS011;43233;48.608;8.838;2023-02-14T06:48:44;39.83;;;19.37;;
32292;SDS011;43233;48.608;8.838;2023-02-14T06:51:09;40.30;;;19.80;;
32292;SDS011;43233;48.608;8.838;2023-02-14T06:53:35;46.70;;;21.10;;
32292;SDS011;43233;48.608;8.838;2023-02-14T06:56:01;40.67;;;19.80;;
32292;SDS011;43233;48.608;8.838;2023-02-14T06:58:27;39.17;;;21.00;;
32292;SDS011;43233;48.608;8.838;2023-02-14T07:00:56;45.10;;;21.90;;
32292;SDS011;43233;48.608;8.838;2023-02-14T07:03:22;42.00;;;21.13;;
32292;SDS011;43233;48.608;8.838;2023-02-14T07:05:48;45.20;;;21.93;;
32292;SDS011;43233;48.608;8.838;2023-02-14T07:08:14;41.37;;;22.47;;
32292;SDS011;43233;48.608;8.838;2023-02-14T07:10:40;48.27;;;23.47;;
32292;SDS011;43233;48.608;8.838;2023-02-14T07:13:05;41.03;;;22.07;;
32292;SDS011;43233;48.608;8.838;2023-02-14T07:15:31;40.33;;;20.97;;
32292;SDS011;43233;48.608;8.838;2023-02-14T07:17:57;37.83;;;20.13;;
32292;SDS011;43233;48.608;8.838;2023-02-14T07:20:22;26.20;;;16.97;;
32292;SDS011;43233;48.608;8.838;2023-02-14T07:22:48;35.83;;;19.90;;
32292;SDS011;43233;48.608;8.838;2023-02-14T07:25:14;33.90;;;18.80;;
32292;SDS011;43233;48.608;8.838;2023-02-14T07:27:40;28.70;;;18.87;;
32292;SDS011;43233;48.608;8.838;2023-02-14T07:30:06;35.67;;;18.23;;
32292;SDS011;43233;48.608;8.838;2023-02-14T07:32:32;38.40;;;19.20;;
32292;SDS011;43233;48.608;8.838;2023-02-14T07:34:58;32.23;;;19.63;;
32292;SDS011;43233;48.608;8.838;2023-02-14T07:37:24;29.83;;;17.03;;
32292;SDS011;43233;48.608;8.838;2023-02-14T07:39:50;27.70;;;15.83;;
32292;SDS011;43233;48.608;8.838;2023-02-14T07:42:15;30.47;;;18.70;;
32292;SDS011;43233;48.608;8.838;2023-02-14T07:44:41;33.10;;;18.20;;
32292;SDS011;43233;48.608;8.838;2023-02-14T07:47:07;29.17;;;16.00;;
32292;SDS011;43233;48.608;8.838;2023-02-14T07:49:34;27.27;;;15.40;;
32292;SDS011;43233;48.608;8.838;2023-02-14T07:52:00;25.03;;;15.20;;
32292;SDS011;43233;48.608;8.838;2023-02-14T07:54:26;27.73;;;15.47;;
32292;SDS011;43233;48.608;8.838;2023-02-14T07:56:51;29.63;;;18.57;;
32292;SDS011;43233;48.608;8.838;2023-02-14T07:59:17;28.70;;;16.37;;
32292;SDS011;43233;48.608;8.838;2023-02-14T08:01:42;35.93;;;18.93;;
32292;SDS011;43233;48.608;8.838;2023-02-14T08:04:08;32.60;;;18.27;;
32292;SDS011;43233;48.608;8.838;2023-02-14T08:06:34;36.93;;;18.50;;
32292;SDS011;43233;48.608;8.838;2023-02-14T08:09:00;26.13;;;16.53;;
32292;SDS011;43233;48.608;8.838;2023-02-14T08:11:25;23.37;;;15.90;;
32292;SDS011;43233;48.608;8.838;2023-02-14T08:14:10;28.47;;;16.63;;
32292;SDS011;43233;48.608;8.838;2023-02-14T08:16:35;30.70;;;16.30;;
32292;SDS011;43233;48.608;8.838;2023-02-14T08:19:02;30.40;;;16.80;;
32292;SDS011;43233;48.608;8.838;2023-02-14T08:21:28;32.43;;;18.13;;
32292;SDS011;43233;48.608;8.838;2023-02-14T08:23:54;25.90;;;15.80;;
32292;SDS011;43233;48.608;8.838;2023-02-14T08:26:19;26.70;;;16.13;;
32292;SDS011;43233;48.608;8.838;2023-02-14T08:28:45;35.83;;;19.43;;
32292;SDS011;43233;48.608;8.838;2023-02-14T08:31:11;25.60;;;15.83;;
32292;SDS011;43233;48.608;8.838;2023-02-14T08:33:36;27.97;;;16.43;;
32292;SDS011;43233;48.608;8.838;2023-02-14T08:36:02;23.43;;;15.73;;
32292;SDS011;43233;48.608;8.838;2023-02-14T08:38:28;29.60;;;17.17;;
32292;SDS011;43233;48.608;8.838;2023-02-14T08:40:54;25.47;;;15.80;;
32292;SDS011;43233;48.608;8.838;2023-02-14T08:43:24;30.10;;;17.80;;
32292;SDS011;43233;48.608;8.838;2023-02-14T08:45:53;23.50;;;15.03;;
32292;SDS011;43233;48.608;8.838;2023-02-14T08:48:18;21.30;;;13.70;;
32292;SDS011;43233;48.608;8.838;2023-02-14T08:50:44;21.37;;;15.53;;
32292;SDS011;43233;48.608;8.838;2023-02-14T08:53:10;21.07;;;14.33;;
32292;SDS011;43233;48.608;8.838;2023-02-14T08:55:37;23.60;;;15.47;;
32292;SDS011;43233;48.608;8.838;2023-02-14T08:58:03;27.80;;;15.20;;
32292;SDS011;43233;48.608;8.838;2023-02-14T09:00:30;23.40;;;15.30;;
32292;SDS011;43233;48.608;8.838;2023-02-14T09:02:56;24.63;;;15.47;;
32292;SDS011;43233;48.608;8.838;2023-02-14T09:05:22;25.53;;;16.40;;
32292;SDS011;43233;48.608;8.838;2023-02-14T09:07:48;23.57;;;15.00;;
32292;SDS011;43233;48.608;8.838;2023-02-14T09:10:14;25.57;;;15.23;;
32292;SDS011;43233;48.608;8.838;2023-02-14T09:12:42;28.20;;;16.70;;
32292;SDS011;43233;48.608;8.838;2023-02-14T09:15:08;27.60;;;17.33;;
32292;SDS011;43233;48.608;8.838;2023-02-14T09:17:35;26.10;;;15.37;;
32292;SDS011;43233;48.608;8.838;2023-02-14T09:20:02;22.20;;;14.10;;
32292;SDS011;43233;48.608;8.838;2023-02-14T09:22:32;25.10;;;15.70;;
32292;SDS011;43233;48.608;8.838;2023-02-14T09:24:58;23.60;;;15.70;;
32292;SDS011;43233;48.608;8.838;2023-02-14T09:27:24;22.50;;;14.17;;
32292;SDS011;43233;48.608;8.838;2023-02-14T09:29:50;25.23;;;15.03;;
32292;SDS011;43233;48.608;8.838;2023-02-14T09:32:17;27.23;;;15.90;;
32292;SDS011;43233;48.608;8.838;2023-02-14T09:34:42;27.13;;;16.67;;
32292;SDS011;43233;48.608;8.838;2023-02-14T09:37:09;27.87;;;14.97;;
32292;SDS011;43233;48.608;8.838;2023-02-14T09:39:35;25.53;;;15.20;;
32292;SDS011;43233;48.608;8.838;2023-02-14T09:42:17;25.23;;;15.70;;
32292;SDS011;43233;48.608;8.838;2023-02-14T09:44:58;26.87;;;16.83;;
32292;SDS011;43233;48.608;8.838;2023-02-14T09:50:17;22.43;;;15.83;;
32292;SDS011;43233;48.608;8.838;2023-02-14T09:52:43;36.57;;;15.90;;
32292;SDS011;43233;48.608;8.838;2023-02-14T09:55:13;23.90;;;15.27;;
32292;SDS011;43233;48.608;8.838;2023-02-14T10:00:35;24.33;;;15.83;;
32292;SDS011;43233;48.608;8.838;2023-02-14T10:03:31;23.40;;;15.53;;
32292;SDS011;43233;48.608;8.838;2023-02-14T10:11:31;29.00;;;17.30;;
32292;SDS011;43233;48.608;8.838;2023-02-14T10:13:58;23.87;;;15.87;;
32292;SDS011;43233;48.608;8.838;2023-02-14T10:16:58;26.27;;;15.73;;
32292;SDS011;43233;48.608;8.838;2023-02-14T10:19:37;22.07;;;16.00;;
32292;SDS011;43233;48.608;8.838;2023-02-14T10:22:12;28.37;;;16.90;;
32292;SDS011;43233;48.608;8.838;2023-02-14T10:24:42;27.20;;;16.63;;
32292;SDS011;43233;48.608;8.838;2023-02-14T10:29:56;25.83;;;16.30;;
32292;SDS011;43233;48.608;8.838;2023-02-14T10:32:26;23.23;;;14.17;;
32292;SDS011;43233;48.608;8.838;2023-02-14T10:34:53;27.77;;;16.70;;
32292;SDS011;43233;48.608;8.838;2023-02-14T10:37:35;23.47;;;15.50;;
32292;SDS011;43233;48.608;8.838;2023-02-14T10:51:13;22.47;;;15.10;;
32292;SDS011;43233;48.608;8.838;2023-02-14T10:56:50;25.13;;;15.63;;
32292;SDS011;43233;48.608;8.838;2023-02-14T11:01:59;24.93;;;16.53;;
32292;SDS011;43233;48.608;8.838;2023-02-14T11:04:26;24.13;;;16.00;;
32292;SDS011;43233;48.608;8.838;2023-02-14T11:06:54;24.40;;;16.20;;
32292;SDS011;43233;48.608;8.838;2023-02-14T11:09:20;23.37;;;15.23;;
32292;SDS011;43233;48.608;8.838;2023-02-14T11:11:47;29.57;;;17.93;;
32292;SDS011;43233;48.608;8.838;2023-02-14T11:16:49;29.03;;;16.67;;
32292;SDS011;43233;48.608;8.838;2023-02-14T11:19:20;22.60;;;15.00;;
32292;SDS011;43233;48.608;8.838;2023-02-14T11:21:54;27.93;;;16.37;;
32292;SDS011;43233;48.608;8.838;2023-02-14T11:26:58;32.47;;;16.10;;
32292;SDS011;43233;48.608;8.838;2023-02-14T11:29:28;26.73;;;15.00;;
32292;SDS011;43233;48.608;8.838;2023-02-14T11:32:10;23.33;;;14.33;;
32292;SDS011;43233;48.608;8.838;2023-02-14T11:35:02;25.40;;;16.13;;
32292;SDS011;43233;48.608;8.838;2023-02-14T11:37:33;20.90;;;14.60;;
32292;SDS011;43233;48.608;8.838;2023-02-14T11:45:39;21.00;;;14.00;;
32292;SDS011;43233;48.608;8.838;2023-02-14T11:48:22;20.87;;;13.40;;
32292;SDS011;43233;48.608;8.838;2023-02-14T11:53:24;19.70;;;13.00;;
32292;SDS011;43233;48.608;8.838;2023-02-14T11:55:53;26.30;;;13.03;;
32292;SDS011;43233;48.608;8.838;2023-02-14T11:58:28;18.13;;;11.97;;
32292;SDS011;43233;48.608;8.838;2023-02-14T12:01:02;19.60;;;13.73;;
32292;SDS011;43233;48.608;8.838;2023-02-14T12:03:29;17.90;;;12.00;;
32292;SDS011;43233;48.608;8.838;2023-02-14T12:06:02;22.00;;;13.87;;
32292;SDS011;43233;48.608;8.838;2023-02-14T12:08:29;22.70;;;13.00;;
32292;SDS011;43233;48.608;8.838;2023-02-14T12:11:05;18.40;;;11.63;;
32292;SDS011;43233;48.608;8.838;2023-02-14T12:13:54;17.20;;;11.30;;
32292;SDS011;43233;48.608;8.838;2023-02-14T12:16:45;23.00;;;12.53;;
32292;SDS011;43233;48.608;8.838;2023-02-14T12:19:12;18.50;;;12.83;;
32292;SDS011;43233;48.608;8.838;2023-02-14T12:24:28;23.03;;;13.87;;
32292;SDS011;43233;48.608;8.838;2023-02-14T12:27:05;20.17;;;12.40;;
32292;SDS011;43233;48.608;8.838;2023-02-14T12:29:41;17.03;;;11.90;;
32292;SDS011;43233;48.608;8.838;2023-02-14T12:32:13;15.33;;;10.80;;
32292;SDS011;43233;48.608;8.838;2023-02-14T12:34:40;17.50;;;11.60;;
32292;SDS011;43233;48.608;8.838;2023-02-14T12:39:50;15.33;;;10.93;;
32292;SDS011;43233;48.608;8.838;2023-02-14T12:42:27;14.17;;;10.00;;
32292;SDS011;43233;48.608;8.838;2023-02-14T13:01:38;15.33;;;10.33;;
32292;SDS011;43233;48.608;8.838;2023-02-14T13:12:27;10.00;;;8.30;;
32292;SDS011;43233;48.608;8.838;2023-02-14T13:15:12;12.50;;;9.30;;
32292;SDS011;43233;48.608;8.838;2023-02-14T13:23:14;12.47;;;8.70;;
32292;SDS011;43233;48.608;8.838;2023-02-14T13:25:44;8.90;;;7.03;;
32292;SDS011;43233;48.608;8.838;2023-02-14T13:28:15;10.10;;;7.20;;
32292;SDS011;43233;48.608;8.838;2023-02-14T13:30:42;9.37;;;7.30;;
32292;SDS011;43233;48.608;8.838;2023-02-14T13:35:33;12.37;;;7.93;;
32292;SDS011;43233;48.608;8.838;2023-02-14T13:38:01;8.73;;;7.20;;
32292;SDS011;43233;48.608;8.838;2023-02-14T13:40:30;14.10;;;8.27;;
32292;SDS011;43233;48.608;8.838;2023-02-14T13:42:59;10.27;;;7.40;;
32292;SDS011;43233;48.608;8.838;2023-02-14T13:50:39;15.73;;;6.90;;
32292;SDS011;43233;48.608;8.838;2023-02-14T13:53:11;7.90;;;6.10;;
32292;SDS011;43233;48.608;8.838;2023-02-14T13:55:41;7.00;;;6.30;;
32292;SDS011;43233;48.608;8.838;2023-02-14T13:58:27;9.50;;;5.50;;
32292;SDS011;43233;48.608;8.838;2023-02-14T14:00:53;11.03;;;6.10;;
32292;SDS011;43233;48.608;8.838;2023-02-14T14:06:07;7.40;;;5.53;;
32292;SDS011;43233;48.608;8.838;2023-02-14T14:11:04;6.83;;;5.77;;
32292;SDS011;43233;48.608;8.838;2023-02-14T14:16:38;7.70;;;6.43;;
32292;SDS011;43233;48.608;8.838;2023-02-14T14:21:58;42.23;;;9.50;;
32292;SDS011;43233;48.608;8.838;2023-02-14T14:24:29;10.30;;;6.10;;
32292;SDS011;43233;48.608;8.838;2023-02-14T14:29:45;12.00;;;6.13;;
32292;SDS011;43233;48.608;8.838;2023-02-14T14:34:49;46.70;;;9.70;;
32292;SDS011;43233;48.608;8.838;2023-02-14T14:37:18;23.63;;;8.70;;
32292;SDS011;43233;48.608;8.838;2023-02-14T14:39:50;36.47;;;9.80;;
32292;SDS011;43233;48.608;8.838;2023-02-14T14:42:17;40.67;;;11.03;;
32292;SDS011;43233;48.608;8.838;2023-02-14T14:44:48;13.83;;;7.43;;
32292;SDS011;43233;48.608;8.838;2023-02-14T14:47:39;55.00;;;11.47;;
32292;SDS011;43233;48.608;8.838;2023-02-14T14:50:12;17.23;;;7.63;;
32292;SDS011;43233;48.608;8.838;2023-02-14T14:52:46;60.10;;;12.93;;
32292;SDS011;43233;48.608;8.838;2023-02-14T14:55:22;21.73;;;7.70;;
32292;SDS011;43233;48.608;8.838;2023-02-14T14:57:58;10.73;;;6.73;;
32292;SDS011;43233;48.608;8.838;2023-02-14T15:00:34;10.67;;;7.40;;
32292;SDS011;43233;48.608;8.838;2023-02-14T15:03:03;12.20;;;7.17;;
32292;SDS011;43233;48.608;8.838;2023-02-14T15:05:33;73.73;;;13.23;;
32292;SDS011;43233;48.608;8.838;2023-02-14T15:10:52;9.43;;;8.33;;
32292;SDS011;43233;48.608;8.838;2023-02-14T15:13:20;15.83;;;9.47;;
32292;SDS011;43233;48.608;8.838;2023-02-14T15:16:18;16.10;;;8.73;;
32292;SDS011;43233;48.608;8.838;2023-02-14T15:18:46;15.70;;;8.90;;
32292;SDS011;43233;48.608;8.838;2023-02-14T15:21:12;14.63;;;9.13;;
32292;SDS011;43233;48.608;8.838;2023-02-14T15:23:39;13.43;;;9.13;;
32292;SDS011;43233;48.608;8.838;2023-02-14T15:26:09;15.50;;;9.93;;
32292;SDS011;43233;48.608;8.838;2023-02-14T15:28:59;13.50;;;10.37;;
32292;SDS011;43233;48.608;8.838;2023-02-14T15:31:28;12.90;;;9.87;;
32292;SDS011;43233;48.608;8.838;2023-02-14T15:33:57;21.00;;;10.67;;
32292;SDS011;43233;48.608;8.838;2023-02-14T15:36:25;14.33;;;10.80;;
32292;SDS011;43233;48.608;8.838;2023-02-14T15:38:52;13.93;;;10.03;;
32292;SDS011;43233;48.608;8.838;2023-02-14T15:41:20;14.47;;;10.23;;
32292;SDS011;43233;48.608;8.838;2023-02-14T15:43:49;15.87;;;10.77;;
32292;SDS011;43233;48.608;8.838;2023-02-14T15:48:54;16.00;;;11.17;;
32292;SDS011;43233;48.608;8.838;2023-02-14T15:51:29;17.67;;;12.57;;
32292;SDS011;43233;48.608;8.838;2023-02-14T15:54:00;14.23;;;11.63;;
32292;SDS011;43233;48.608;8.838;2023-02-14T15:56:33;17.73;;;13.63;;
32292;SDS011;43233;48.608;8.838;2023-02-14T15:59:55;14.77;;;12.10;;
32292;SDS011;43233;48.608;8.838;2023-02-14T16:05:06;20.87;;;13.07;;
32292;SDS011;43233;48.608;8.838;2023-02-14T16:07:32;23.30;;;14.27;;
32292;SDS011;43233;48.608;8.838;2023-02-14T16:16:03;17.70;;;14.20;;
32292;SDS011;43233;48.608;8.838;2023-02-14T16:21:13;88.93;;;34.10;;
32292;SDS011;43233;48.608;8.838;2023-02-14T16:23:42;53.53;;;26.00;;
32292;SDS011;43233;48.608;8.838;2023-02-14T16:26:10;32.93;;;21.73;;
32292;SDS011;43233;48.608;8.838;2023-02-14T16:28:36;29.73;;;20.40;;
32292;SDS011;43233;48.608;8.838;2023-02-14T16:31:03;36.97;;;22.07;;
32292;SDS011;43233;48.608;8.838;2023-02-14T16:33:34;52.50;;;26.77;;
32292;SDS011;43233;48.608;8.838;2023-02-14T16:36:06;55.90;;;29.90;;
32292;SDS011;43233;48.608;8.838;2023-02-14T16:38:40;86.20;;;44.27;;
32292;SDS011;43233;48.608;8.838;2023-02-14T16:41:11;70.70;;;39.43;;
32292;SDS011;43233;48.608;8.838;2023-02-14T16:43:44;75.47;;;45.10;;
32292;SDS011;43233;48.608;8.838;2023-02-14T16:46:12;87.60;;;50.30;;
32292;SDS011;43233;48.608;8.838;2023-02-14T16:48:39;104.00;;;57.40;;
32292;SDS011;43233;48.608;8.838;2023-02-14T16:51:12;85.07;;;51.00;;
32292;SDS011;43233;48.608;8.838;2023-02-14T16:53:38;129.03;;;70.33;;
32292;SDS011;43233;48.608;8.838;2023-02-14T16:56:06;114.83;;;66.57;;
32292;SDS011;43233;48.608;8.838;2023-02-14T16:58:38;97.13;;;57.57;;
32292;SDS011;43233;48.608;8.838;2023-02-14T17:01:04;99.13;;;56.80;;
32292;SDS011;43233;48.608;8.838;2023-02-14T17:03:30;91.90;;;50.90;;
32292;SDS011;43233;48.608;8.838;2023-02-14T17:05:56;63.30;;;38.20;;
32292;SDS011;43233;48.608;8.838;2023-02-14T17:08:22;76.30;;;45.38;;
32292;SDS011;43233;48.608;8.838;2023-02-14T17:10:48;61.10;;;36.23;;
32292;SDS011;43233;48.608;8.838;2023-02-14T17:13:18;44.67;;;27.57;;
32292;SDS011;43233;48.608;8.838;2023-02-14T17:15:48;44.93;;;28.60;;
32292;SDS011;43233;48.608;8.838;2023-02-14T17:18:14;38.53;;;24.70;;
32292;SDS011;43233;48.608;8.838;2023-02-14T17:20:42;27.00;;;17.67;;
32292;SDS011;43233;48.608;8.838;2023-02-14T17:23:07;30.33;;;18.47;;
32292;SDS011;43233;48.608;8.838;2023-02-14T17:25:33;26.87;;;19.37;;
32292;SDS011;43233;48.608;8.838;2023-02-14T17:27:59;27.47;;;19.07;;
32292;SDS011;43233;48.608;8.838;2023-02-14T17:30:25;27.63;;;19.10;;
32292;SDS011;43233;48.608;8.838;2023-02-14T17:32:51;32.30;;;19.27;;